createdAt,value
2022-12-24T00:00:41.361Z,1000.23
2022-12-24T00:01:41.664Z,1000.26
2022-12-24T00:02:42.123Z,1000.23
2022-12-24T00:03:42.372Z,1000.29
2022-12-24T00:04:42.542Z,1000.27
2022-12-24T00:05:42.826Z,1000.32
2022-12-24T00:06:43.195Z,1000.31
2022-12-24T00:07:43.420Z,1000.29
2022-12-24T00:08:43.687Z,1000.30
2022-12-24T00:09:43.916Z,1000.31
2022-12-24T00:10:44.187Z,1000.30
2022-12-24T00:11:44.417Z,1000.32
2022-12-24T00:12:44.719Z,1000.31
2022-12-24T00:13:44.975Z,1000.28
2022-12-24T00:14:45.245Z,1000.31
2022-12-24T00:15:45.498Z,1000.33
2022-12-24T00:16:45.870Z,1000.25
2022-12-24T00:17:46.039Z,1000.31
2022-12-24T00:18:47.201Z,1000.28
2022-12-24T00:19:46.523Z,1000.31
2022-12-24T00:20:46.810Z,1000.31
2022-12-24T00:21:47.067Z,1000.26
2022-12-24T00:22:47.329Z,1000.27
2022-12-24T00:23:47.614Z,1000.29
2022-12-24T00:24:47.892Z,1000.33
2022-12-24T00:25:48.176Z,1000.32
2022-12-24T00:26:48.445Z,1000.28
2022-12-24T00:27:48.712Z,1000.31
2022-12-24T00:28:48.970Z,1000.31
2022-12-24T00:29:49.229Z,1000.29
2022-12-24T00:30:49.507Z,1000.29
2022-12-24T00:31:49.754Z,1000.24
2022-12-24T00:32:50.023Z,1000.30
2022-12-24T00:33:50.310Z,1000.22
2022-12-24T00:34:50.551Z,1000.26
2022-12-24T00:35:50.824Z,1000.25
2022-12-24T00:36:51.102Z,1000.30
2022-12-24T00:37:51.330Z,1000.34
2022-12-24T00:38:51.597Z,1000.37
2022-12-24T00:39:51.885Z,1000.34
2022-12-24T00:40:52.142Z,1000.33
2022-12-24T00:41:52.455Z,1000.25
2022-12-24T00:42:52.731Z,1000.39
2022-12-24T00:43:52.985Z,1000.47
2022-12-24T00:44:53.253Z,1000.29
2022-12-24T00:45:53.515Z,1000.36
2022-12-24T00:46:53.787Z,1000.33
2022-12-24T00:47:54.054Z,1000.41
2022-12-24T00:48:54.327Z,1000.36
2022-12-24T00:49:54.583Z,1000.35
2022-12-24T00:50:54.874Z,1000.39
2022-12-24T00:51:55.135Z,1000.42
2022-12-24T00:52:55.405Z,1000.41
2022-12-24T00:53:55.659Z,1000.43
2022-12-24T00:54:55.915Z,1000.41
2022-12-24T00:55:56.170Z,1000.50
2022-12-24T00:56:56.409Z,1000.45
2022-12-24T00:57:56.663Z,1000.45
2022-12-24T00:58:56.919Z,1000.43
2022-12-24T00:59:57.166Z,1000.51
2022-12-24T01:00:57.513Z,1000.52
2022-12-24T01:01:57.909Z,1000.54
2022-12-24T01:02:58.200Z,1000.55
2022-12-24T01:03:58.338Z,1000.53
2022-12-24T01:04:58.586Z,1000.59
2022-12-24T01:05:58.835Z,1000.57
2022-12-24T01:06:59.171Z,1000.63
2022-12-24T01:07:59.412Z,1000.60
2022-12-24T01:08:59.688Z,1000.67
2022-12-24T01:09:59.951Z,1000.61
2022-12-24T01:11:00.224Z,1000.64
2022-12-24T01:12:00.449Z,1000.64
2022-12-24T01:13:00.731Z,1000.61
2022-12-24T01:14:00.996Z,1000.61
2022-12-24T01:15:01.244Z,1000.68
2022-12-24T01:16:01.543Z,1000.69
2022-12-24T01:17:01.801Z,1000.62
2022-12-24T01:18:02.069Z,1000.61
2022-12-24T01:19:02.316Z,1000.65
2022-12-24T01:20:02.591Z,1000.63
2022-12-24T01:21:02.847Z,1000.67
2022-12-24T01:22:03.076Z,1000.66
2022-12-24T01:23:03.340Z,1000.69
2022-12-24T01:24:03.601Z,1000.73
2022-12-24T01:25:03.878Z,1000.73
2022-12-24T01:26:04.131Z,1000.69
2022-12-24T01:27:04.380Z,1000.73
2022-12-24T01:28:04.655Z,1000.77
2022-12-24T01:29:04.917Z,1000.78
2022-12-24T01:30:05.163Z,1000.75
2022-12-24T01:31:05.433Z,1000.74
2022-12-24T01:32:05.685Z,1000.72
2022-12-24T01:33:05.949Z,1000.82
2022-12-24T01:34:06.210Z,1000.81
2022-12-24T01:35:06.464Z,1000.78
2022-12-24T01:36:06.737Z,1000.87
2022-12-24T01:37:06.982Z,1000.84
2022-12-24T01:38:07.289Z,1000.84
2022-12-24T01:39:07.566Z,1000.82
2022-12-24T01:40:07.816Z,1000.83
2022-12-24T01:41:08.082Z,1000.80
2022-12-24T01:42:08.331Z,1000.82
2022-12-24T01:43:08.636Z,1000.93
2022-12-24T01:44:08.882Z,1000.83
2022-12-24T01:45:09.149Z,1000.82
2022-12-24T01:46:09.421Z,1000.91
2022-12-24T01:47:09.658Z,1000.84
2022-12-24T01:48:10.018Z,1000.86
2022-12-24T01:49:10.251Z,1000.94
2022-12-24T01:50:10.486Z,1000.91
2022-12-24T01:51:10.694Z,1000.85
2022-12-24T01:52:10.976Z,1000.90
2022-12-24T01:53:11.202Z,1000.93
2022-12-24T01:54:11.415Z,1000.93
2022-12-24T01:55:11.698Z,1001.02
2022-12-24T01:56:11.915Z,1000.96
2022-12-24T01:57:12.272Z,1000.88
2022-12-24T01:58:12.595Z,1000.91
2022-12-24T01:59:12.852Z,1000.93
2022-12-24T02:00:13.095Z,1000.97
2022-12-24T02:01:13.429Z,1000.98
2022-12-24T02:02:13.790Z,1000.97
2022-12-24T02:03:13.891Z,1000.94
2022-12-24T02:04:14.141Z,1000.90
2022-12-24T02:05:14.502Z,1001.00
2022-12-24T02:06:14.719Z,1000.92
2022-12-24T02:07:14.976Z,1000.98
2022-12-24T02:08:15.234Z,1000.99
2022-12-24T02:09:15.464Z,1001.06
2022-12-24T02:10:15.835Z,1001.09
2022-12-24T02:11:16.041Z,1001.09
2022-12-24T02:12:16.250Z,1001.10
2022-12-24T02:13:16.608Z,1001.11
2022-12-24T02:14:16.841Z,1001.12
2022-12-24T02:15:17.090Z,1001.11
2022-12-24T02:16:17.348Z,1001.11
2022-12-24T02:17:17.567Z,1001.16
2022-12-24T02:18:17.963Z,1001.18
2022-12-24T02:19:18.160Z,1001.12
2022-12-24T02:20:18.526Z,1001.20
2022-12-24T02:21:18.763Z,1001.17
2022-12-24T02:22:19.045Z,1001.12
2022-12-24T02:23:19.273Z,1001.16
2022-12-24T02:24:19.531Z,1001.17
2022-12-24T02:25:19.751Z,1001.13
2022-12-24T02:26:20.101Z,1001.18
2022-12-24T02:27:20.363Z,1001.16
2022-12-24T02:28:20.571Z,1001.19
2022-12-24T02:29:20.926Z,1001.14
2022-12-24T02:30:21.195Z,1001.20
2022-12-24T02:31:21.481Z,1001.22
2022-12-24T02:32:21.736Z,1001.20
2022-12-24T02:33:21.993Z,1001.27
2022-12-24T02:34:22.222Z,1001.21
2022-12-24T02:35:22.442Z,1001.21
2022-12-24T02:36:22.783Z,1001.22
2022-12-24T02:37:23.130Z,1001.26
2022-12-24T02:38:23.483Z,1001.23
2022-12-24T02:39:23.675Z,1001.22
2022-12-24T02:40:24.025Z,1001.24
2022-12-24T02:41:24.244Z,1001.25
2022-12-24T02:42:24.573Z,1001.27
2022-12-24T02:43:24.948Z,1001.29
2022-12-24T02:44:25.162Z,1001.31
2022-12-24T02:45:25.524Z,1001.33
2022-12-24T02:46:25.763Z,1001.31
2022-12-24T02:47:25.988Z,1001.28
2022-12-24T02:48:26.363Z,1001.29
2022-12-24T02:49:26.602Z,1001.37
2022-12-24T02:50:26.807Z,1001.35
2022-12-24T02:51:27.183Z,1001.38
2022-12-24T02:52:27.385Z,1001.39
2022-12-24T02:53:27.726Z,1001.37
2022-12-24T02:54:28.087Z,1001.43
2022-12-24T02:55:28.331Z,1001.45
2022-12-24T02:56:28.539Z,1001.47
2022-12-24T02:57:28.857Z,1001.44
2022-12-24T02:58:29.215Z,1001.45
2022-12-24T02:59:29.442Z,1001.53
2022-12-24T03:00:29.841Z,1001.51
2022-12-24T03:01:30.180Z,1001.59
2022-12-24T03:02:30.498Z,1001.53
2022-12-24T03:03:30.762Z,1001.50
2022-12-24T03:04:31.049Z,1001.57
2022-12-24T03:05:31.256Z,1001.57
2022-12-24T03:06:31.616Z,1001.57
2022-12-24T03:07:31.881Z,1001.57
2022-12-24T03:08:32.154Z,1001.57
2022-12-24T03:09:32.363Z,1001.48
2022-12-24T03:10:32.697Z,1001.54
2022-12-24T03:11:33.031Z,1001.57
2022-12-24T03:12:33.347Z,1001.53
2022-12-24T03:13:33.705Z,1001.59
2022-12-24T03:14:33.959Z,1001.56
2022-12-24T03:15:34.160Z,1001.55
2022-12-24T03:16:34.550Z,1001.64
2022-12-24T03:17:34.772Z,1001.59
2022-12-24T03:18:35.129Z,1001.59
2022-12-24T03:19:35.328Z,1001.65
2022-12-24T03:20:35.701Z,1001.63
2022-12-24T03:21:35.918Z,1001.62
2022-12-24T03:22:36.140Z,1001.62
2022-12-24T03:23:36.508Z,1001.67
2022-12-24T03:24:36.752Z,1001.66
2022-12-24T03:25:37.079Z,1001.70
2022-12-24T03:26:37.409Z,1001.72
2022-12-24T03:27:37.724Z,1001.71
2022-12-24T03:28:38.081Z,1001.69
2022-12-24T03:29:38.442Z,1001.75
2022-12-24T03:30:38.707Z,1001.73
2022-12-24T03:31:38.950Z,1001.77
2022-12-24T03:32:39.173Z,1001.75
2022-12-24T03:33:39.531Z,1001.80
2022-12-24T03:34:39.761Z,1001.76
2022-12-24T03:35:39.978Z,1001.81
2022-12-24T03:36:40.313Z,1001.76
2022-12-24T03:37:40.646Z,1001.73
2022-12-24T03:38:40.995Z,1001.79
2022-12-24T03:39:41.233Z,1001.75
2022-12-24T03:40:41.557Z,1001.75
2022-12-24T03:41:41.920Z,1001.84
2022-12-24T03:42:42.148Z,1001.84
2022-12-24T03:43:42.455Z,1001.78
2022-12-24T03:44:42.821Z,1001.86
2022-12-24T03:45:43.092Z,1001.95
2022-12-24T03:46:43.301Z,1001.91
2022-12-24T03:47:43.544Z,1001.87
2022-12-24T03:48:43.908Z,1001.92
2022-12-24T03:49:44.127Z,1001.88
2022-12-24T03:50:44.441Z,1001.95
2022-12-24T03:51:44.769Z,1001.89
2022-12-24T03:52:45.106Z,1001.90
2022-12-24T03:53:45.449Z,1001.91
2022-12-24T03:54:45.800Z,1001.84
2022-12-24T03:55:45.995Z,1001.90
2022-12-24T03:56:46.336Z,1001.86
2022-12-24T03:57:46.668Z,1001.91
2022-12-24T03:58:47.061Z,1001.90
2022-12-24T03:59:47.248Z,1001.99
2022-12-24T04:00:47.628Z,1001.98
2022-12-24T04:01:48.129Z,1001.94
2022-12-24T04:02:48.244Z,1002.05
2022-12-24T04:03:48.426Z,1001.99
2022-12-24T04:04:48.637Z,1001.96
2022-12-24T04:05:48.962Z,1001.93
2022-12-24T04:06:49.287Z,1001.99
2022-12-24T04:07:49.616Z,1001.98
2022-12-24T04:08:49.995Z,1002.00
2022-12-24T04:09:50.190Z,1002.05
2022-12-24T04:10:50.516Z,1002.10
2022-12-24T04:11:50.849Z,1002.14
2022-12-24T04:12:51.177Z,1002.09
2022-12-24T04:13:51.516Z,1002.09
2022-12-24T04:14:51.880Z,1002.06
2022-12-24T04:15:52.090Z,1002.05
2022-12-24T04:16:52.449Z,1002.03
2022-12-24T04:17:52.674Z,1002.09
2022-12-24T04:18:53.030Z,1002.05
2022-12-24T04:19:53.230Z,1002.07
2022-12-24T04:20:53.560Z,1002.09
2022-12-24T04:21:53.900Z,1002.09
2022-12-24T04:22:54.265Z,1002.06
2022-12-24T04:23:54.512Z,1002.09
2022-12-24T04:24:54.734Z,1002.10
2022-12-24T04:25:55.045Z,1002.10
2022-12-24T04:26:55.390Z,1002.10
2022-12-24T04:27:55.730Z,1002.20
2022-12-24T04:28:55.967Z,1002.15
2022-12-24T04:29:56.178Z,1002.13
2022-12-24T04:30:56.501Z,1002.13
2022-12-24T04:31:56.999Z,1002.20
2022-12-24T04:32:57.193Z,1002.21
2022-12-24T04:33:57.425Z,1002.17
2022-12-24T04:34:57.650Z,1002.24
2022-12-24T04:35:57.983Z,1002.17
2022-12-24T04:36:58.318Z,1002.21
2022-12-24T04:37:58.653Z,1002.27
2022-12-24T04:38:58.995Z,1002.24
2022-12-24T04:39:59.324Z,1002.23
2022-12-24T04:40:59.661Z,1002.26
2022-12-24T04:42:00.003Z,1002.35
2022-12-24T04:43:00.357Z,1002.28
2022-12-24T04:44:00.576Z,1002.33
2022-12-24T04:45:00.914Z,1002.28
2022-12-24T04:46:01.278Z,1002.27
2022-12-24T04:47:01.511Z,1002.32
2022-12-24T04:48:01.830Z,1002.35
2022-12-24T04:49:02.205Z,1002.35
2022-12-24T04:50:02.416Z,1002.36
2022-12-24T04:51:02.751Z,1002.32
2022-12-24T04:52:03.105Z,1002.33
2022-12-24T04:53:03.427Z,1002.29
2022-12-24T04:54:03.828Z,1002.36
2022-12-24T04:55:04.051Z,1002.31
2022-12-24T04:56:04.384Z,1002.38
2022-12-24T04:57:04.735Z,1002.32
2022-12-24T04:58:04.974Z,1002.32
2022-12-24T04:59:05.316Z,1002.38
2022-12-24T05:00:05.652Z,1002.36
2022-12-24T05:01:06.071Z,1002.30
2022-12-24T05:02:06.457Z,1002.32
2022-12-24T05:03:06.629Z,1002.30
2022-12-24T05:04:06.889Z,1002.31
2022-12-24T05:05:07.129Z,1002.31
2022-12-24T05:06:07.459Z,1002.23
2022-12-24T05:07:07.791Z,1002.30
2022-12-24T05:08:08.113Z,1002.32
2022-12-24T05:09:08.473Z,1002.29
2022-12-24T05:10:08.680Z,1002.34
2022-12-24T05:11:09.029Z,1002.38
2022-12-24T05:12:09.257Z,1002.34
2022-12-24T05:13:09.471Z,1002.40
2022-12-24T05:14:09.829Z,1002.43
2022-12-24T05:15:10.052Z,1002.39
2022-12-24T05:16:10.389Z,1002.42
2022-12-24T05:17:10.768Z,1002.49
2022-12-24T05:18:11.019Z,1002.51
2022-12-24T05:19:11.700Z,1002.49
2022-12-24T05:20:11.625Z,1002.55
2022-12-24T05:21:11.948Z,1002.58
2022-12-24T05:22:12.281Z,1002.59
2022-12-24T05:23:12.603Z,1002.55
2022-12-24T05:24:12.945Z,1002.56
2022-12-24T05:25:13.280Z,1002.56
2022-12-24T05:26:13.615Z,1002.61
2022-12-24T05:27:13.932Z,1002.64
2022-12-24T05:28:14.263Z,1002.58
2022-12-24T05:29:14.622Z,1002.63
2022-12-24T05:30:14.835Z,1002.69
2022-12-24T05:31:15.208Z,1002.69
2022-12-24T05:32:15.458Z,1002.69
2022-12-24T05:33:15.657Z,1002.62
2022-12-24T05:34:16.030Z,1002.70
2022-12-24T05:35:16.227Z,1002.69
2022-12-24T05:36:16.556Z,1002.75
2022-12-24T05:37:16.895Z,1002.72
2022-12-24T05:38:17.225Z,1002.70
2022-12-24T05:39:17.580Z,1002.77
2022-12-24T05:40:17.891Z,1002.70
2022-12-24T05:41:18.226Z,1002.72
2022-12-24T05:42:18.564Z,1002.76
2022-12-24T05:43:18.902Z,1002.77
2022-12-24T05:44:19.147Z,1002.79
2022-12-24T05:45:19.368Z,1002.81
2022-12-24T05:46:19.797Z,1002.80
2022-12-24T05:47:20.035Z,1002.88
2022-12-24T05:48:20.371Z,1002.86
2022-12-24T05:49:20.707Z,1002.86
2022-12-24T05:50:21.030Z,1002.89
2022-12-24T05:51:21.371Z,1002.86
2022-12-24T05:52:21.700Z,1002.83
2022-12-24T05:53:22.017Z,1002.88
2022-12-24T05:54:22.363Z,1002.84
2022-12-24T05:55:22.695Z,1002.90
2022-12-24T05:56:23.024Z,1002.90
2022-12-24T05:57:23.366Z,1002.89
2022-12-24T05:58:23.681Z,1002.90
2022-12-24T05:59:24.021Z,1002.92
2022-12-24T06:00:24.368Z,1002.90
2022-12-24T06:01:24.626Z,1002.86
2022-12-24T06:02:24.853Z,1002.91
2022-12-24T06:03:25.179Z,1002.85
2022-12-24T06:04:28.970Z,1002.90
2022-12-24T06:05:25.778Z,1002.84
2022-12-24T06:06:26.117Z,1002.84
2022-12-24T06:07:26.438Z,1002.86
2022-12-24T06:08:26.766Z,1002.87
2022-12-24T06:09:27.111Z,1002.91
2022-12-24T06:10:27.435Z,1002.97
2022-12-24T06:11:27.785Z,1002.87
2022-12-24T06:12:28.093Z,1002.91
2022-12-24T06:13:28.434Z,1003.02
2022-12-24T06:14:28.783Z,1003.00
2022-12-24T06:15:29.002Z,1003.03
2022-12-24T06:16:29.384Z,1003.05
2022-12-24T06:17:29.633Z,1003.06
2022-12-24T06:18:29.991Z,1003.13
2022-12-24T06:19:30.222Z,1003.14
2022-12-24T06:20:30.547Z,1003.11
2022-12-24T06:21:30.900Z,1003.10
2022-12-24T06:22:31.204Z,1003.09
2022-12-24T06:23:31.544Z,1003.16
2022-12-24T06:24:31.943Z,1003.10
2022-12-24T06:25:32.124Z,1003.14
2022-12-24T06:26:32.490Z,1003.13
2022-12-24T06:27:32.752Z,1003.16
2022-12-24T06:28:32.941Z,1003.18
2022-12-24T06:29:33.278Z,1003.22
2022-12-24T06:30:33.610Z,1003.26
2022-12-24T06:31:33.985Z,1003.26
2022-12-24T06:32:34.176Z,1003.23
2022-12-24T06:33:34.530Z,1003.28
2022-12-24T06:34:34.858Z,1003.27
2022-12-24T06:35:35.210Z,1003.25
2022-12-24T06:36:35.583Z,1003.30
2022-12-24T06:37:35.769Z,1003.30
2022-12-24T06:38:36.124Z,1003.36
2022-12-24T06:39:36.346Z,1003.36
2022-12-24T06:40:36.676Z,1003.37
2022-12-24T06:41:37.004Z,1003.34
2022-12-24T06:42:37.318Z,1003.35
2022-12-24T06:43:37.651Z,1003.35
2022-12-24T06:44:37.992Z,1003.44
2022-12-24T06:45:38.316Z,1003.43
2022-12-24T06:46:38.711Z,1003.40
2022-12-24T06:47:38.959Z,1003.48
2022-12-24T06:48:39.306Z,1003.49
2022-12-24T06:49:39.633Z,1003.50
2022-12-24T06:50:39.963Z,1003.51
2022-12-24T06:51:40.284Z,1003.51
2022-12-24T06:52:40.613Z,1003.53
2022-12-24T06:53:40.961Z,1003.62
2022-12-24T06:54:41.302Z,1003.57
2022-12-24T06:55:41.520Z,1003.66
2022-12-24T06:56:41.850Z,1003.67
2022-12-24T06:57:42.180Z,1003.64
2022-12-24T06:58:42.503Z,1003.62
2022-12-24T06:59:42.851Z,1003.72
2022-12-24T07:00:43.082Z,1003.67
2022-12-24T07:01:43.461Z,1003.72
2022-12-24T07:02:43.780Z,1003.70
2022-12-24T07:03:44.090Z,1003.75
2022-12-24T07:04:44.380Z,1003.73
2022-12-24T07:05:44.600Z,1003.80
2022-12-24T07:06:44.943Z,1003.83
2022-12-24T07:07:45.289Z,1003.82
2022-12-24T07:08:45.643Z,1003.85
2022-12-24T07:09:45.868Z,1003.85
2022-12-24T07:10:50.641Z,1003.82
2022-12-24T07:11:47.424Z,1003.89
2022-12-24T07:12:46.727Z,1003.89
2022-12-24T07:13:46.964Z,1003.94
2022-12-24T07:14:47.199Z,1003.95
2022-12-24T07:15:47.437Z,1003.91
2022-12-24T07:16:47.795Z,1003.99
2022-12-24T07:17:47.997Z,1003.95
2022-12-24T07:18:48.231Z,1004.02
2022-12-24T07:19:48.465Z,1003.98
2022-12-24T07:20:48.699Z,1004.04
2022-12-24T07:21:48.943Z,1004.01
2022-12-24T07:22:49.184Z,1004.01
2022-12-24T07:23:49.404Z,1004.10
2022-12-24T07:24:49.771Z,1004.09
2022-12-24T07:25:49.990Z,1004.07
2022-12-24T07:26:50.216Z,1004.14
2022-12-24T07:27:50.566Z,1004.14
2022-12-24T07:28:50.787Z,1004.13
2022-12-24T07:29:51.045Z,1004.17
2022-12-24T07:30:51.287Z,1004.22
2022-12-24T07:31:51.572Z,1004.13
2022-12-24T07:32:51.827Z,1004.16
2022-12-24T07:33:52.048Z,1004.16
2022-12-24T07:34:52.306Z,1004.16
2022-12-24T07:35:55.944Z,1004.22
2022-12-24T07:36:52.815Z,1004.16
2022-12-24T07:37:53.056Z,1004.22
2022-12-24T07:38:53.299Z,1004.28
2022-12-24T07:39:53.551Z,1004.31
2022-12-24T07:40:53.784Z,1004.31
2022-12-24T07:41:54.015Z,1004.36
2022-12-24T07:42:54.318Z,1004.36
2022-12-24T07:43:54.538Z,1004.30
2022-12-24T07:44:54.789Z,1004.40
2022-12-24T07:45:55.009Z,1004.33
2022-12-24T07:46:55.317Z,1004.39
2022-12-24T07:47:55.557Z,1004.46
2022-12-24T07:48:55.820Z,1004.45
2022-12-24T07:49:56.087Z,1004.41
2022-12-24T07:50:56.323Z,1004.49
2022-12-24T07:51:56.576Z,1004.49
2022-12-24T07:52:56.803Z,1004.52
2022-12-24T07:53:57.039Z,1004.52
2022-12-24T07:54:57.293Z,1004.60
2022-12-24T07:55:57.515Z,1004.62
2022-12-24T07:56:57.765Z,1004.57
2022-12-24T07:57:58.009Z,1004.62
2022-12-24T07:58:58.291Z,1004.62
2022-12-24T07:59:58.541Z,1004.61
2022-12-24T08:00:58.796Z,1004.67
2022-12-24T08:01:59.222Z,1004.68
2022-12-24T08:02:59.405Z,1004.71
2022-12-24T08:03:59.568Z,1004.70
2022-12-24T08:04:59.835Z,1004.74
2022-12-24T08:06:00.099Z,1004.75
2022-12-24T08:07:00.321Z,1004.69
2022-12-24T08:08:00.542Z,1004.70
2022-12-24T08:09:00.812Z,1004.66
2022-12-24T08:10:01.089Z,1004.72
2022-12-24T08:11:01.315Z,1004.72
2022-12-24T08:12:01.545Z,1004.67
2022-12-24T08:13:01.793Z,1004.68
2022-12-24T08:14:02.060Z,1004.64
2022-12-24T08:15:02.321Z,1004.67
2022-12-24T08:16:02.618Z,1004.62
2022-12-24T08:17:02.847Z,1004.65
2022-12-24T08:18:03.098Z,1004.73
2022-12-24T08:19:03.332Z,1004.74
2022-12-24T08:20:03.582Z,1004.74
2022-12-24T08:21:03.839Z,1004.70
2022-12-24T08:22:04.096Z,1004.74
2022-12-24T08:23:04.340Z,1004.80
2022-12-24T08:24:04.566Z,1004.82
2022-12-24T08:25:04.824Z,1004.78
2022-12-24T08:26:05.046Z,1004.83
2022-12-24T08:27:05.326Z,1004.78
2022-12-24T08:28:05.538Z,1004.78
2022-12-24T08:29:05.792Z,1004.82
2022-12-24T08:30:06.074Z,1004.79
2022-12-24T08:31:06.384Z,1004.84
2022-12-24T08:32:06.702Z,1004.91
2022-12-24T08:33:06.844Z,1004.84
2022-12-24T08:34:07.096Z,1004.99
2022-12-24T08:35:07.356Z,1004.98
2022-12-24T08:36:07.580Z,1005.06
2022-12-24T08:37:07.830Z,1004.97
2022-12-24T08:38:08.076Z,1004.96
2022-12-24T08:39:08.307Z,1004.95
2022-12-24T08:40:08.619Z,1004.93
2022-12-24T08:41:08.867Z,1004.84
2022-12-24T08:42:09.154Z,1004.89
2022-12-24T08:43:09.410Z,1004.93
2022-12-24T08:44:09.652Z,1004.96
2022-12-24T08:45:09.909Z,1004.96
2022-12-24T08:46:10.212Z,1004.95
2022-12-24T08:47:10.494Z,1005.00
2022-12-24T08:48:10.785Z,1004.94
2022-12-24T08:49:11.036Z,1004.96
2022-12-24T08:50:11.294Z,1005.06
2022-12-24T08:51:11.536Z,1004.98
2022-12-24T08:52:11.777Z,1005.02
2022-12-24T08:53:12.583Z,1005.01
2022-12-24T08:54:12.257Z,1005.00
2022-12-24T08:55:12.567Z,1005.00
2022-12-24T08:56:12.839Z,1005.00
2022-12-24T08:57:13.095Z,1005.06
2022-12-24T08:58:13.341Z,1005.09
2022-12-24T08:59:13.598Z,1005.07
2022-12-24T09:00:13.879Z,1005.04
2022-12-24T09:01:14.279Z,1005.08
2022-12-24T09:02:14.527Z,1005.10
2022-12-24T09:03:14.663Z,1005.16
2022-12-24T09:04:14.832Z,1005.13
2022-12-24T09:05:15.155Z,1005.20
2022-12-24T09:06:15.463Z,1005.19
2022-12-24T09:07:15.731Z,1005.20
2022-12-24T09:08:16.097Z,1005.27
2022-12-24T09:09:16.963Z,1005.27
2022-12-24T09:10:16.655Z,1005.23
2022-12-24T09:11:16.923Z,1005.22
2022-12-24T09:12:17.195Z,1005.24
2022-12-24T09:13:17.434Z,1005.26
2022-12-24T09:14:17.723Z,1005.26
2022-12-24T09:15:18.012Z,1005.30
2022-12-24T09:16:18.370Z,1005.29
2022-12-24T09:17:18.501Z,1005.28
2022-12-24T09:18:18.775Z,1005.33
2022-12-24T09:19:19.026Z,1005.38
2022-12-24T09:20:19.356Z,1005.34
2022-12-24T09:21:19.633Z,1005.34
2022-12-24T09:22:19.897Z,1005.35
2022-12-24T09:23:20.190Z,1005.39
2022-12-24T09:24:20.457Z,1005.39
2022-12-24T09:25:20.838Z,1005.35
2022-12-24T09:26:21.101Z,1005.37
2022-12-24T09:27:21.179Z,1005.39
2022-12-24T09:28:21.485Z,1005.45
2022-12-24T09:29:21.832Z,1005.41
2022-12-24T09:30:22.155Z,1005.49
2022-12-24T09:31:22.468Z,1005.46
2022-12-24T09:32:22.679Z,1005.41
2022-12-24T09:33:22.993Z,1005.50
2022-12-24T09:34:30.043Z,1005.51
2022-12-24T09:35:24.661Z,1005.47
2022-12-24T09:36:23.868Z,1005.47
2022-12-24T09:37:24.169Z,1005.41
2022-12-24T09:38:24.459Z,1005.44
2022-12-24T09:39:24.816Z,1005.43
2022-12-24T09:40:25.013Z,1005.42
2022-12-24T09:41:25.333Z,1005.48
2022-12-24T09:42:25.698Z,1005.43
2022-12-24T09:43:25.885Z,1005.52
2022-12-24T09:44:26.163Z,1005.44
2022-12-24T09:45:26.511Z,1005.46
2022-12-24T09:46:26.814Z,1005.52
2022-12-24T09:47:27.007Z,1005.52
2022-12-24T09:48:27.303Z,1005.54
2022-12-24T09:49:27.669Z,1005.63
2022-12-24T09:50:27.840Z,1005.64
2022-12-24T09:51:28.190Z,1005.62
2022-12-24T09:52:28.472Z,1005.63
2022-12-24T09:53:28.773Z,1005.65
2022-12-24T09:54:29.045Z,1005.62
2022-12-24T09:55:29.353Z,1005.62
2022-12-24T09:56:29.656Z,1005.64
2022-12-24T09:57:29.934Z,1005.64
2022-12-24T09:58:30.285Z,1005.67
2022-12-24T09:59:30.411Z,1005.66
2022-12-24T10:00:30.710Z,1005.66
2022-12-24T10:01:31.415Z,1005.67
2022-12-24T10:02:31.379Z,1005.76
2022-12-24T10:03:31.498Z,1005.77
2022-12-24T10:04:31.991Z,1005.73
2022-12-24T10:05:32.133Z,1005.75
2022-12-24T10:06:32.431Z,1005.75
2022-12-24T10:07:32.744Z,1005.74
2022-12-24T10:08:33.042Z,1005.74
2022-12-24T10:09:33.372Z,1005.77
2022-12-24T10:10:33.745Z,1005.76
2022-12-24T10:11:33.915Z,1005.72
2022-12-24T10:12:34.247Z,1005.80
2022-12-24T10:13:34.546Z,1005.84
2022-12-24T10:14:34.857Z,1005.83
2022-12-24T10:15:35.318Z,1005.85
2022-12-24T10:16:35.593Z,1005.84
2022-12-24T10:17:35.760Z,1005.78
2022-12-24T10:18:36.077Z,1005.81
2022-12-24T10:19:36.387Z,1005.79
2022-12-24T10:20:36.737Z,1005.74
2022-12-24T10:21:36.958Z,1005.72
2022-12-24T10:22:37.177Z,1005.75
2022-12-24T10:23:37.494Z,1005.75
2022-12-24T10:24:37.885Z,1005.77
2022-12-24T10:25:38.028Z,1005.70
2022-12-24T10:26:38.321Z,1005.76
2022-12-24T10:27:38.618Z,1005.79
2022-12-24T10:28:38.888Z,1005.74
2022-12-24T10:29:39.429Z,1005.81
2022-12-24T10:30:39.469Z,1005.76
2022-12-24T10:31:39.734Z,1005.69
2022-12-24T10:32:40.026Z,1005.72
2022-12-24T10:33:40.305Z,1005.72
2022-12-24T10:34:41.030Z,1005.76
2022-12-24T10:35:40.958Z,1005.77
2022-12-24T10:36:41.198Z,1005.80
2022-12-24T10:37:41.606Z,1005.84
2022-12-24T10:38:41.821Z,1005.83
2022-12-24T10:39:42.032Z,1005.88
2022-12-24T10:40:42.390Z,1005.89
2022-12-24T10:41:42.742Z,1005.85
2022-12-24T10:42:50.299Z,1005.92
2022-12-24T10:43:44.229Z,1005.92
2022-12-24T10:44:43.561Z,1005.99
2022-12-24T10:45:43.872Z,1006.00
2022-12-24T10:46:44.065Z,1005.95
2022-12-24T10:47:44.340Z,1006.02
2022-12-24T10:48:50.352Z,1006.04
2022-12-24T10:49:45.838Z,1005.99
2022-12-24T10:50:45.177Z,1006.05
2022-12-24T10:51:45.440Z,1005.99
2022-12-24T10:52:45.709Z,1006.05
2022-12-24T10:53:45.976Z,1006.11
2022-12-24T10:54:46.228Z,1006.04
2022-12-24T10:55:46.561Z,1006.06
2022-12-24T10:56:46.827Z,1006.05
2022-12-24T10:57:47.094Z,1006.12
2022-12-24T10:58:47.352Z,1006.13
2022-12-24T10:59:47.654Z,1006.19
2022-12-24T11:00:47.947Z,1006.18
2022-12-24T11:01:48.315Z,1006.25
2022-12-24T11:02:48.580Z,1006.26
2022-12-24T11:03:48.929Z,1006.28
2022-12-24T11:04:49.077Z,1006.27
2022-12-24T11:05:49.374Z,1006.28
2022-12-24T11:06:49.617Z,1006.27
2022-12-24T11:07:49.871Z,1006.34
2022-12-24T11:08:50.148Z,1006.26
2022-12-24T11:09:50.393Z,1006.23
2022-12-24T11:10:50.694Z,1006.23
2022-12-24T11:11:50.947Z,1006.26
2022-12-24T11:13:12.640Z,1006.17
2022-12-24T11:13:52.452Z,1006.24
2022-12-24T11:14:51.776Z,1006.24
2022-12-24T11:15:52.058Z,1006.23
2022-12-24T11:16:52.312Z,1006.26
2022-12-24T11:17:52.575Z,1006.32
2022-12-24T11:18:52.838Z,1006.30
2022-12-24T11:19:53.077Z,1006.35
2022-12-24T11:20:53.334Z,1006.30
2022-12-24T11:21:53.576Z,1006.24
2022-12-24T11:22:53.864Z,1006.29
2022-12-24T11:23:54.105Z,1006.24
2022-12-24T11:24:54.360Z,1006.30
2022-12-24T11:25:54.621Z,1006.28
2022-12-24T11:26:54.879Z,1006.22
2022-12-24T11:27:55.139Z,1006.29
2022-12-24T11:28:55.378Z,1006.26
2022-12-24T11:29:59.529Z,1006.24
2022-12-24T11:31:04.383Z,1006.29
2022-12-24T11:31:56.229Z,1006.31
2022-12-24T11:32:56.474Z,1006.34
2022-12-24T11:33:56.741Z,1006.39
2022-12-24T11:34:57.063Z,1006.33
2022-12-24T11:35:57.367Z,1006.38
2022-12-24T11:36:57.604Z,1006.40
2022-12-24T11:37:57.893Z,1006.40
2022-12-24T11:38:58.164Z,1006.34
2022-12-24T11:39:58.413Z,1006.35
2022-12-24T11:40:58.675Z,1006.41
2022-12-24T11:41:58.953Z,1006.41
2022-12-24T11:42:59.316Z,1006.41
2022-12-24T11:44:00.239Z,1006.39
2022-12-24T11:44:59.711Z,1006.45
2022-12-24T11:45:59.980Z,1006.42
2022-12-24T11:47:00.293Z,1006.38
2022-12-24T11:48:00.564Z,1006.48
2022-12-24T11:49:05.984Z,1006.45
2022-12-24T11:50:17.720Z,1006.47
2022-12-24T11:51:02.315Z,1006.48
2022-12-24T11:52:01.644Z,1006.47
2022-12-24T11:53:01.913Z,1006.53
2022-12-24T11:54:02.182Z,1006.54
2022-12-24T11:55:02.434Z,1006.59
2022-12-24T11:56:02.700Z,1006.52
2022-12-24T11:57:02.990Z,1006.60
2022-12-24T11:58:03.248Z,1006.57
2022-12-24T11:59:03.535Z,1006.57
2022-12-24T12:00:03.795Z,1006.52
2022-12-24T12:01:04.287Z,1006.60
2022-12-24T12:02:04.404Z,1006.58
2022-12-24T12:03:04.785Z,1006.58
2022-12-24T12:04:05.001Z,1006.58
2022-12-24T12:05:05.190Z,1006.62
2022-12-24T12:06:05.436Z,1006.61
2022-12-24T12:07:11.140Z,1006.61
2022-12-24T12:08:06.973Z,1006.55
2022-12-24T12:09:06.296Z,1006.46